sensor_id;sensor_type;location;lat;lon;timestamp;pressure;altitude;pressure_sealevel;temperature;humidity
70407;BME280;57821;52.202;0.154;2023-11-22T00:02:28;103079.38;;;7.44;89.17
70407;BME280;57821;52.202;0.154;2023-11-22T00:05:16;103072.28;;;7.40;88.82
70407;BME280;57821;52.202;0.154;2023-11-22T00:08:03;103073.84;;;7.36;88.75
70407;BME280;57821;52.202;0.154;2023-11-22T00:10:50;103062.56;;;7.34;89.43
70407;BME280;57821;52.202;0.154;2023-11-22T00:13:37;103063.31;;;7.32;89.13
70407;BME280;57821;52.202;0.154;2023-11-22T00:16:24;103065.81;;;7.30;89.56
70407;BME280;57821;52.202;0.154;2023-11-22T00:19:11;103071.75;;;7.28;89.74
70407;BME280;57821;52.202;0.154;2023-11-22T00:21:58;103065.63;;;7.26;89.61
70407;BME280;57821;52.202;0.154;2023-11-22T00:24:45;103066.44;;;7.25;89.82
70407;BME280;57821;52.202;0.154;2023-11-22T00:27:36;103062.84;;;7.21;89.33
70407;BME280;57821;52.202;0.154;2023-11-22T00:30:24;103071.38;;;7.20;90.10
70407;BME280;57821;52.202;0.154;2023-11-22T00:33:11;103063.66;;;7.20;89.79
70407;BME280;57821;52.202;0.154;2023-11-22T00:35:58;103060.09;;;7.18;89.33
70407;BME280;57821;52.202;0.154;2023-11-22T00:38:45;103055.75;;;7.17;90.34
70407;BME280;57821;52.202;0.154;2023-11-22T00:41:32;103046.25;;;7.16;89.66
70407;BME280;57821;52.202;0.154;2023-11-22T00:44:20;103048.69;;;7.13;90.46
70407;BME280;57821;52.202;0.154;2023-11-22T00:47:07;103046.25;;;7.16;90.39
70407;BME280;57821;52.202;0.154;2023-11-22T00:49:54;103051.44;;;7.16;90.65
70407;BME280;57821;52.202;0.154;2023-11-22T00:52:43;103058.31;;;7.17;90.48
70407;BME280;57821;52.202;0.154;2023-11-22T00:55:31;103064.44;;;7.19;90.46
70407;BME280;57821;52.202;0.154;2023-11-22T00:58:18;103068.81;;;7.20;91.75
70407;BME280;57821;52.202;0.154;2023-11-22T01:01:06;103077.44;;;7.21;91.21
70407;BME280;57821;52.202;0.154;2023-11-22T01:03:53;103074.91;;;7.22;91.04
70407;BME280;57821;52.202;0.154;2023-11-22T01:06:40;103077.63;;;7.25;91.17
70407;BME280;57821;52.202;0.154;2023-11-22T01:09:27;103074.25;;;7.26;91.53
70407;BME280;57821;52.202;0.154;2023-11-22T01:12:15;103057.13;;;7.28;91.56
70407;BME280;57821;52.202;0.154;2023-11-22T01:15:02;103066.63;;;7.29;91.43
70407;BME280;57821;52.202;0.154;2023-11-22T01:17:50;103066.63;;;7.29;90.85
70407;BME280;57821;52.202;0.154;2023-11-22T01:20:36;103062.53;;;7.33;90.90
70407;BME280;57821;52.202;0.154;2023-11-22T01:23:24;103060.81;;;7.33;90.58
70407;BME280;57821;52.202;0.154;2023-11-22T01:26:11;103054.81;;;7.34;91.18
70407;BME280;57821;52.202;0.154;2023-11-22T01:28:58;103060.94;;;7.36;91.07
70407;BME280;57821;52.202;0.154;2023-11-22T01:31:47;103061.84;;;7.37;90.98
70407;BME280;57821;52.202;0.154;2023-11-22T01:34:35;103074.81;;;7.38;91.13
70407;BME280;57821;52.202;0.154;2023-11-22T01:37:21;103074.81;;;7.38;91.24
70407;BME280;57821;52.202;0.154;2023-11-22T01:40:10;103083.50;;;7.40;90.76
70407;BME280;57821;52.202;0.154;2023-11-22T01:42:58;103076.59;;;7.39;91.45
70407;BME280;57821;52.202;0.154;2023-11-22T01:45:45;103072.38;;;7.41;90.45
70407;BME280;57821;52.202;0.154;2023-11-22T01:48:32;103080.09;;;7.41;90.36
70407;BME280;57821;52.202;0.154;2023-11-22T01:51:21;103060.81;;;7.33;90.30
70407;BME280;57821;52.202;0.154;2023-11-22T01:54:09;103061.91;;;7.38;90.54
70407;BME280;57821;52.202;0.154;2023-11-22T01:56:57;103064.53;;;7.40;90.69
70407;BME280;57821;52.202;0.154;2023-11-22T01:59:45;103060.22;;;7.39;90.44
70407;BME280;57821;52.202;0.154;2023-11-22T02:02:33;103061.91;;;7.38;90.53
70407;BME280;57821;52.202;0.154;2023-11-22T02:05:20;103065.38;;;7.39;89.85
70407;BME280;57821;52.202;0.154;2023-11-22T02:08:09;103063.41;;;7.33;90.19
70407;BME280;57821;52.202;0.154;2023-11-22T02:11:00;103061.91;;;7.38;90.31
70407;BME280;57821;52.202;0.154;2023-11-22T02:13:50;103052.53;;;7.40;90.59
70407;BME280;57821;52.202;0.154;2023-11-22T02:16:38;103046.47;;;7.40;90.16
70407;BME280;57821;52.202;0.154;2023-11-22T02:19:25;103042.19;;;7.40;90.51
70407;BME280;57821;52.202;0.154;2023-11-22T02:22:12;103044.78;;;7.40;90.25
70407;BME280;57821;52.202;0.154;2023-11-22T02:24:59;103038.72;;;7.40;90.68
70407;BME280;57821;52.202;0.154;2023-11-22T02:27:47;103042.88;;;7.36;90.11
70407;BME280;57821;52.202;0.154;2023-11-22T02:30:35;103052.31;;;7.36;90.50
70407;BME280;57821;52.202;0.154;2023-11-22T02:33:22;103062.56;;;7.34;90.54
70407;BME280;57821;52.202;0.154;2023-11-22T02:36:09;103062.44;;;7.31;90.75
70407;BME280;57821;52.202;0.154;2023-11-22T02:38:59;103067.69;;;7.33;91.13
70407;BME280;57821;52.202;0.154;2023-11-22T02:41:46;103055.50;;;7.30;90.37
70407;BME280;57821;52.202;0.154;2023-11-22T02:44:33;103058.91;;;7.29;90.40
70407;BME280;57821;52.202;0.154;2023-11-22T02:47:20;103060.47;;;7.26;90.52
70407;BME280;57821;52.202;0.154;2023-11-22T02:50:07;103061.44;;;7.28;89.95
70407;BME280;57821;52.202;0.154;2023-11-22T02:52:55;103054.50;;;7.27;90.12
70407;BME280;57821;52.202;0.154;2023-11-22T02:55:42;103054.50;;;7.27;90.21
70407;BME280;57821;52.202;0.154;2023-11-22T02:58:29;103044.97;;;7.26;89.96
70407;BME280;57821;52.202;0.154;2023-11-22T03:01:18;103046.50;;;7.22;89.53
70407;BME280;57821;52.202;0.154;2023-11-22T03:04:05;103048.00;;;7.17;89.99
70407;BME280;57821;52.202;0.154;2023-11-22T03:06:52;103061.75;;;7.16;89.92
70407;BME280;57821;52.202;0.154;2023-11-22T03:09:39;103066.75;;;7.13;89.88
70407;BME280;57821;52.202;0.154;2023-11-22T03:12:27;103060.69;;;7.13;89.50
70407;BME280;57821;52.202;0.154;2023-11-22T03:15:14;103071.03;;;7.13;90.30
70407;BME280;57821;52.202;0.154;2023-11-22T03:18:01;103066.63;;;7.10;90.12
70407;BME280;57821;52.202;0.154;2023-11-22T03:20:50;103064.03;;;7.10;90.65
70407;BME280;57821;52.202;0.154;2023-11-22T03:23:40;103056.31;;;7.10;90.32
70407;BME280;57821;52.202;0.154;2023-11-22T03:26:27;103057.09;;;7.09;90.48
70407;BME280;57821;52.202;0.154;2023-11-22T03:29:15;103066.53;;;7.09;89.28
70407;BME280;57821;52.202;0.154;2023-11-22T03:32:05;103060.50;;;7.08;89.68
70407;BME280;57821;52.202;0.154;2023-11-22T03:34:52;103057.75;;;7.05;90.43
70407;BME280;57821;52.202;0.154;2023-11-22T03:37:39;103058.59;;;7.04;89.18
70407;BME280;57821;52.202;0.154;2023-11-22T03:40:26;103054.22;;;7.03;90.24
70407;BME280;57821;52.202;0.154;2023-11-22T03:43:13;103066.97;;;7.00;89.79
70407;BME280;57821;52.202;0.154;2023-11-22T03:46:00;103060.78;;;6.96;89.62
70407;BME280;57821;52.202;0.154;2023-11-22T03:48:47;103065.00;;;6.94;89.41
70407;BME280;57821;52.202;0.154;2023-11-22T03:51:36;103060.63;;;6.93;90.06
70407;BME280;57821;52.202;0.154;2023-11-22T03:54:23;103067.53;;;6.93;90.05
70407;BME280;57821;52.202;0.154;2023-11-22T03:57:10;103074.28;;;6.91;89.92
70407;BME280;57821;52.202;0.154;2023-11-22T03:59:57;103063.97;;;6.91;90.41
70407;BME280;57821;52.202;0.154;2023-11-22T04:02:44;103067.34;;;6.90;90.27
70407;BME280;57821;52.202;0.154;2023-11-22T04:05:31;103063.09;;;6.90;89.62
70407;BME280;57821;52.202;0.154;2023-11-22T04:08:18;103070.91;;;6.92;90.72
70407;BME280;57821;52.202;0.154;2023-11-22T04:11:05;103063.97;;;6.91;90.04
70407;BME280;57821;52.202;0.154;2023-11-22T04:13:52;103075.19;;;6.91;90.37
70407;BME280;57821;52.202;0.154;2023-11-22T04:16:40;103080.41;;;6.93;90.77
70407;BME280;57821;52.202;0.154;2023-11-22T04:19:27;103070.91;;;6.92;90.37
70407;BME280;57821;52.202;0.154;2023-11-22T04:22:15;103080.41;;;6.93;90.38
70407;BME280;57821;52.202;0.154;2023-11-22T04:25:02;103077.84;;;6.93;90.62
70407;BME280;57821;52.202;0.154;2023-11-22T04:27:49;103073.47;;;6.92;90.51
70407;BME280;57821;52.202;0.154;2023-11-22T04:30:36;103079.56;;;6.94;90.74
70407;BME280;57821;52.202;0.154;2023-11-22T04:33:24;103079.56;;;6.94;90.05
70407;BME280;57821;52.202;0.154;2023-11-22T04:36:12;103079.56;;;6.94;90.13
70407;BME280;57821;52.202;0.154;2023-11-22T04:38:58;103062.28;;;6.91;89.95
70407;BME280;57821;52.202;0.154;2023-11-22T04:41:46;103063.16;;;6.92;90.47
70407;BME280;57821;52.202;0.154;2023-11-22T04:44:33;103064.06;;;6.92;91.21
70407;BME280;57821;52.202;0.154;2023-11-22T04:47:20;103070.91;;;6.92;89.93
70407;BME280;57821;52.202;0.154;2023-11-22T04:50:10;103072.69;;;6.93;90.57
70407;BME280;57821;52.202;0.154;2023-11-22T04:52:57;103076.06;;;6.92;90.30
70407;BME280;57821;52.202;0.154;2023-11-22T04:55:44;103072.69;;;6.93;91.11
70407;BME280;57821;52.202;0.154;2023-11-22T04:58:32;103055.13;;;6.86;90.86
70407;BME280;57821;52.202;0.154;2023-11-22T05:01:20;103059.69;;;6.91;90.86
70407;BME280;57821;52.202;0.154;2023-11-22T05:04:09;103063.22;;;6.93;90.86
70407;BME280;57821;52.202;0.154;2023-11-22T05:06:57;103067.56;;;6.94;90.69
70407;BME280;57821;52.202;0.154;2023-11-22T05:09:44;103061.47;;;6.92;90.78
70407;BME280;57821;52.202;0.154;2023-11-22T05:12:31;103070.09;;;6.93;90.54
70407;BME280;57821;52.202;0.154;2023-11-22T05:15:18;103067.53;;;6.93;90.39
70407;BME280;57821;52.202;0.154;2023-11-22T05:18:05;103069.13;;;6.91;91.40
70407;BME280;57821;52.202;0.154;2023-11-22T05:20:53;103073.41;;;6.90;90.62
70407;BME280;57821;52.202;0.154;2023-11-22T05:23:40;103063.81;;;6.88;90.93
70407;BME280;57821;52.202;0.154;2023-11-22T05:26:30;103065.66;;;6.90;90.55
70407;BME280;57821;52.202;0.154;2023-11-22T05:29:17;103070.91;;;6.92;91.21
70407;BME280;57821;52.202;0.154;2023-11-22T05:32:04;103061.47;;;6.92;91.22
70407;BME280;57821;52.202;0.154;2023-11-22T05:34:51;103055.44;;;6.92;90.95
70407;BME280;57821;52.202;0.154;2023-11-22T05:37:38;103042.53;;;6.92;91.15
70407;BME280;57821;52.202;0.154;2023-11-22T05:40:26;103035.59;;;6.91;91.06
70407;BME280;57821;52.202;0.154;2023-11-22T05:43:12;103038.09;;;6.89;90.71
70407;BME280;57821;52.202;0.154;2023-11-22T05:46:00;103017.38;;;6.88;90.30
70407;BME280;57821;52.202;0.154;2023-11-22T05:48:50;103014.75;;;6.86;90.37
70407;BME280;57821;52.202;0.154;2023-11-22T05:51:37;103022.41;;;6.85;91.00
70407;BME280;57821;52.202;0.154;2023-11-22T05:54:24;103011.94;;;6.82;90.91
70407;BME280;57821;52.202;0.154;2023-11-22T05:57:11;103014.50;;;6.82;90.66
70407;BME280;57821;52.202;0.154;2023-11-22T05:59:58;103013.59;;;6.80;90.77
70407;BME280;57821;52.202;0.154;2023-11-22T06:02:45;103015.19;;;6.78;90.71
70407;BME280;57821;52.202;0.154;2023-11-22T06:05:32;103020.34;;;6.78;91.43
70407;BME280;57821;52.202;0.154;2023-11-22T06:08:19;103019.38;;;6.76;90.39
70407;BME280;57821;52.202;0.154;2023-11-22T06:11:07;103029.66;;;6.74;90.71
70407;BME280;57821;52.202;0.154;2023-11-22T06:13:54;103028.75;;;6.74;91.64
70407;BME280;57821;52.202;0.154;2023-11-22T06:16:41;103032.13;;;6.73;90.87
70407;BME280;57821;52.202;0.154;2023-11-22T06:19:28;103030.28;;;6.70;91.14
70407;BME280;57821;52.202;0.154;2023-11-22T06:22:15;103033.91;;;6.74;91.75
70407;BME280;57821;52.202;0.154;2023-11-22T06:25:04;103042.59;;;6.76;91.75
70407;BME280;57821;52.202;0.154;2023-11-22T06:27:51;103034.84;;;6.76;91.69
70407;BME280;57821;52.202;0.154;2023-11-22T06:30:38;103029.78;;;6.77;91.61
70407;BME280;57821;52.202;0.154;2023-11-22T06:33:25;103034.13;;;6.78;91.33
70407;BME280;57821;52.202;0.154;2023-11-22T06:36:12;103032.44;;;6.79;91.44
70407;BME280;57821;52.202;0.154;2023-11-22T06:39:01;103035.97;;;6.81;91.76
70407;BME280;57821;52.202;0.154;2023-11-22T06:41:48;103036.03;;;6.82;91.58
70407;BME280;57821;52.202;0.154;2023-11-22T06:44:35;103036.13;;;6.84;91.47
70407;BME280;57821;52.202;0.154;2023-11-22T06:47:22;103045.63;;;6.85;91.53
70407;BME280;57821;52.202;0.154;2023-11-22T06:50:10;103037.88;;;6.85;91.49
70407;BME280;57821;52.202;0.154;2023-11-22T06:52:57;103029.34;;;6.86;91.63
70407;BME280;57821;52.202;0.154;2023-11-22T06:55:44;103031.13;;;6.87;91.54
70407;BME280;57821;52.202;0.154;2023-11-22T06:58:32;103036.28;;;6.87;91.56
70407;BME280;57821;52.202;0.154;2023-11-22T07:01:22;103033.75;;;6.88;92.07
70407;BME280;57821;52.202;0.154;2023-11-22T07:04:10;103026.09;;;6.90;92.30
70407;BME280;57821;52.202;0.154;2023-11-22T07:06:57;103042.44;;;6.90;92.29
70407;BME280;57821;52.202;0.154;2023-11-22T07:09:44;103034.78;;;6.92;92.16
70407;BME280;57821;52.202;0.154;2023-11-22T07:12:32;103048.63;;;6.94;91.67
70407;BME280;57821;52.202;0.154;2023-11-22T07:15:21;103056.44;;;6.95;91.16
70407;BME280;57821;52.202;0.154;2023-11-22T07:18:08;103058.28;;;6.98;92.16
70407;BME280;57821;52.202;0.154;2023-11-22T07:20:56;103062.63;;;6.99;91.54
70407;BME280;57821;52.202;0.154;2023-11-22T07:23:44;103072.13;;;7.00;92.18
70407;BME280;57821;52.202;0.154;2023-11-22T07:26:32;103073.09;;;7.02;92.41
70407;BME280;57821;52.202;0.154;2023-11-22T07:29:20;103061.16;;;7.04;92.19
70407;BME280;57821;52.202;0.154;2023-11-22T07:32:08;103054.38;;;7.06;91.88
70407;BME280;57821;52.202;0.154;2023-11-22T07:34:55;103054.53;;;7.09;91.17
70407;BME280;57821;52.202;0.154;2023-11-22T07:37:42;103048.41;;;7.07;92.14
70407;BME280;57821;52.202;0.154;2023-11-22T07:40:29;103055.69;;;7.16;91.96
70407;BME280;57821;52.202;0.154;2023-11-22T07:43:17;103060.09;;;7.18;91.89
70407;BME280;57821;52.202;0.154;2023-11-22T07:46:08;103055.09;;;7.21;91.52
70407;BME280;57821;52.202;0.154;2023-11-22T07:49:00;103056.84;;;7.22;91.98
70407;BME280;57821;52.202;0.154;2023-11-22T07:51:47;103060.38;;;7.24;91.69
70407;BME280;57821;52.202;0.154;2023-11-22T07:54:34;103057.06;;;7.27;91.23
70407;BME280;57821;52.202;0.154;2023-11-22T07:57:22;103041.63;;;7.28;91.58
70407;BME280;57821;52.202;0.154;2023-11-22T08:00:10;103046.97;;;7.31;91.37
70407;BME280;57821;52.202;0.154;2023-11-22T08:02:58;103052.94;;;7.30;91.17
70407;BME280;57821;52.202;0.154;2023-11-22T08:05:45;103067.59;;;7.31;91.25
70407;BME280;57821;52.202;0.154;2023-11-22T08:08:35;103066.72;;;7.31;91.19
70407;BME280;57821;52.202;0.154;2023-11-22T08:11:25;103076.84;;;7.26;91.14
70407;BME280;57821;52.202;0.154;2023-11-22T08:14:15;103071.97;;;7.32;91.20
70407;BME280;57821;52.202;0.154;2023-11-22T08:17:03;103088.38;;;7.34;90.45
70407;BME280;57821;52.202;0.154;2023-11-22T08:19:50;103099.59;;;7.35;90.20
70407;BME280;57821;52.202;0.154;2023-11-22T08:22:41;103081.59;;;7.36;91.23
70407;BME280;57821;52.202;0.154;2023-11-22T08:25:28;103072.38;;;7.41;91.04
70407;BME280;57821;52.202;0.154;2023-11-22T08:28:16;103063.81;;;7.42;91.09
70407;BME280;57821;52.202;0.154;2023-11-22T08:31:03;103054.56;;;7.48;91.04
70407;BME280;57821;52.202;0.154;2023-11-22T08:33:56;103059.91;;;7.51;90.92
70407;BME280;57821;52.202;0.154;2023-11-22T08:36:43;103072.03;;;7.53;90.87
70407;BME280;57821;52.202;0.154;2023-11-22T08:39:30;103066.16;;;7.56;90.78
70407;BME280;57821;52.202;0.154;2023-11-22T08:42:17;103043.84;;;7.58;90.80
70407;BME280;57821;52.202;0.154;2023-11-22T08:45:05;103038.03;;;7.62;90.76
70407;BME280;57821;52.202;0.154;2023-11-22T08:47:52;103020.88;;;7.64;90.53
70407;BME280;57821;52.202;0.154;2023-11-22T08:50:39;103012.31;;;7.65;90.54
70407;BME280;57821;52.202;0.154;2023-11-22T08:53:26;103008.13;;;7.67;90.98
70407;BME280;57821;52.202;0.154;2023-11-22T08:56:14;103005.66;;;7.70;90.99
70407;BME280;57821;52.202;0.154;2023-11-22T08:59:02;103015.31;;;7.74;89.71
70407;BME280;57821;52.202;0.154;2023-11-22T09:01:52;103007.69;;;7.77;90.12
70407;BME280;57821;52.202;0.154;2023-11-22T09:04:39;103006.97;;;7.79;90.13
70407;BME280;57821;52.202;0.154;2023-11-22T09:07:28;103001.03;;;7.82;90.02
70407;BME280;57821;52.202;0.154;2023-11-22T09:10:15;103000.28;;;7.84;89.92
70407;BME280;57821;52.202;0.154;2023-11-22T09:13:02;103002.09;;;7.87;89.85
70407;BME280;57821;52.202;0.154;2023-11-22T09:15:49;102984.16;;;7.90;89.46
70407;BME280;57821;52.202;0.154;2023-11-22T09:18:36;102976.53;;;7.93;89.03
70407;BME280;57821;52.202;0.154;2023-11-22T09:21:24;102981.03;;;7.97;89.12
70407;BME280;57821;52.202;0.154;2023-11-22T09:24:12;102987.19;;;8.01;89.10
70407;BME280;57821;52.202;0.154;2023-11-22T09:27:01;102996.78;;;8.03;88.85
70407;BME280;57821;52.202;0.154;2023-11-22T09:29:51;102992.63;;;8.07;89.04
70407;BME280;57821;52.202;0.154;2023-11-22T09:32:38;102994.47;;;8.09;88.77
70407;BME280;57821;52.202;0.154;2023-11-22T09:35:26;103002.41;;;8.14;88.91
70407;BME280;57821;52.202;0.154;2023-11-22T09:38:13;102993.06;;;8.17;88.38
70407;BME280;57821;52.202;0.154;2023-11-22T09:41:02;102991.53;;;8.22;88.59
70407;BME280;57821;52.202;0.154;2023-11-22T09:43:49;102983.16;;;8.28;88.28
70407;BME280;57821;52.202;0.154;2023-11-22T09:46:37;102992.00;;;8.33;88.31
70407;BME280;57821;52.202;0.154;2023-11-22T09:49:24;102985.28;;;8.37;87.82
70407;BME280;57821;52.202;0.154;2023-11-22T09:52:16;102974.00;;;8.35;87.85
70407;BME280;57821;52.202;0.154;2023-11-22T09:55:06;102980.53;;;8.47;87.68
70407;BME280;57821;52.202;0.154;2023-11-22T09:57:56;102972.97;;;8.52;87.38
70407;BME280;57821;52.202;0.154;2023-11-22T10:00:45;102974.97;;;8.59;87.50
70407;BME280;57821;52.202;0.154;2023-11-22T10:03:33;102961.34;;;8.63;87.21
70407;BME280;57821;52.202;0.154;2023-11-22T10:06:20;102959.69;;;8.65;87.02
70407;BME280;57821;52.202;0.154;2023-11-22T10:09:07;102947.97;;;8.73;86.98
70407;BME280;57821;52.202;0.154;2023-11-22T10:12:01;102949.84;;;8.77;86.61
70407;BME280;57821;52.202;0.154;2023-11-22T10:14:48;102956.13;;;8.84;85.89
70407;BME280;57821;52.202;0.154;2023-11-22T10:17:35;102945.88;;;8.87;86.21
70407;BME280;57821;52.202;0.154;2023-11-22T10:20:39;102948.63;;;8.91;85.67
70407;BME280;57821;52.202;0.154;2023-11-22T10:23:27;102962.66;;;8.96;85.82
70407;BME280;57821;52.202;0.154;2023-11-22T10:26:16;102971.47;;;9.01;85.64
70407;BME280;57821;52.202;0.154;2023-11-22T10:29:03;102991.44;;;9.05;85.42
70407;BME280;57821;52.202;0.154;2023-11-22T10:31:50;102995.16;;;9.12;85.73
70407;BME280;57821;52.202;0.154;2023-11-22T10:34:38;102987.69;;;9.20;85.27
70407;BME280;57821;52.202;0.154;2023-11-22T10:37:25;102994.06;;;9.29;85.25
70407;BME280;57821;52.202;0.154;2023-11-22T10:40:13;102983.28;;;9.41;86.16
70407;BME280;57821;52.202;0.154;2023-11-22T10:43:00;102969.97;;;9.54;86.18
70407;BME280;57821;52.202;0.154;2023-11-22T10:45:49;102985.19;;;9.70;85.54
70407;BME280;57821;52.202;0.154;2023-11-22T10:48:38;102990.81;;;9.82;84.46
70407;BME280;57821;52.202;0.154;2023-11-22T10:51:30;102991.28;;;9.96;83.96
70407;BME280;57821;52.202;0.154;2023-11-22T10:54:20;102995.91;;;10.05;83.69
70407;BME280;57821;52.202;0.154;2023-11-22T10:57:08;103006.47;;;10.11;83.13
70407;BME280;57821;52.202;0.154;2023-11-22T10:59:56;103011.03;;;10.16;82.38
70407;BME280;57821;52.202;0.154;2023-11-22T11:02:51;102997.88;;;10.12;81.67
70407;BME280;57821;52.202;0.154;2023-11-22T11:05:50;103002.13;;;10.10;81.42
70407;BME280;57821;52.202;0.154;2023-11-22T11:08:37;103005.84;;;10.16;81.34
70407;BME280;57821;52.202;0.154;2023-11-22T11:11:25;103011.91;;;10.17;80.96
70407;BME280;57821;52.202;0.154;2023-11-22T11:14:13;103011.03;;;10.16;81.49
70407;BME280;57821;52.202;0.154;2023-11-22T11:17:02;103008.47;;;10.18;80.82
70407;BME280;57821;52.202;0.154;2023-11-22T11:19:49;102995.56;;;10.19;81.24
70407;BME280;57821;52.202;0.154;2023-11-22T11:22:36;102995.56;;;10.19;80.56
70407;BME280;57821;52.202;0.154;2023-11-22T11:25:24;102981.69;;;10.17;80.83
70407;BME280;57821;52.202;0.154;2023-11-22T11:28:11;102970.50;;;10.20;80.83
70407;BME280;57821;52.202;0.154;2023-11-22T11:30:58;102956.72;;;10.21;80.69
70407;BME280;57821;52.202;0.154;2023-11-22T11:36:37;102904.63;;;10.15;80.03
70407;BME280;57821;52.202;0.154;2023-11-22T11:39:26;102903.22;;;10.23;80.09
70407;BME280;57821;52.202;0.154;2023-11-22T11:42:17;102885.13;;;10.24;80.28
70407;BME280;57821;52.202;0.154;2023-11-22T11:45:10;102842.56;;;10.18;80.47
70407;BME280;57821;52.202;0.154;2023-11-22T11:47:57;102840.19;;;10.25;80.33
70407;BME280;57821;52.202;0.154;2023-11-22T11:50:47;102837.56;;;10.24;80.00
70407;BME280;57821;52.202;0.154;2023-11-22T11:53:34;102823.75;;;10.25;79.85
70407;BME280;57821;52.202;0.154;2023-11-22T11:56:22;102815.16;;;10.26;80.45
70407;BME280;57821;52.202;0.154;2023-11-22T11:59:10;102822.22;;;10.30;80.20
70407;BME280;57821;52.202;0.154;2023-11-22T12:01:59;102834.31;;;10.31;79.71
70407;BME280;57821;52.202;0.154;2023-11-22T12:04:46;102864.72;;;10.35;79.99
70407;BME280;57821;52.202;0.154;2023-11-22T12:07:34;102884.69;;;10.39;79.87
70407;BME280;57821;52.202;0.154;2023-11-22T12:10:22;102905.56;;;10.42;80.11
70407;BME280;57821;52.202;0.154;2023-11-22T12:13:10;102914.25;;;10.44;79.82
70407;BME280;57821;52.202;0.154;2023-11-22T12:15:57;102865.81;;;10.43;80.13
70407;BME280;57821;52.202;0.154;2023-11-22T12:18:48;102871.03;;;10.45;80.09
70407;BME280;57821;52.202;0.154;2023-11-22T12:21:36;102839.09;;;10.46;79.49
70407;BME280;57821;52.202;0.154;2023-11-22T12:24:24;102848.59;;;10.45;79.49
70407;BME280;57821;52.202;0.154;2023-11-22T12:27:11;102838.13;;;10.42;79.55
70407;BME280;57821;52.202;0.154;2023-11-22T12:29:58;102840.72;;;10.42;79.74
70407;BME280;57821;52.202;0.154;2023-11-22T12:32:45;102835.50;;;10.41;79.59
70407;BME280;57821;52.202;0.154;2023-11-22T12:35:32;102813.03;;;10.41;79.88
70407;BME280;57821;52.202;0.154;2023-11-22T12:38:23;102804.41;;;10.42;79.62
70407;BME280;57821;52.202;0.154;2023-11-22T12:41:10;102802.69;;;10.43;79.35
70407;BME280;57821;52.202;0.154;2023-11-22T12:44:06;102805.25;;;10.41;79.58
70407;BME280;57821;52.202;0.154;2023-11-22T12:46:55;102805.31;;;10.44;80.23
70407;BME280;57821;52.202;0.154;2023-11-22T12:49:46;102798.47;;;10.46;79.44
70407;BME280;57821;52.202;0.154;2023-11-22T12:52:34;102792.47;;;10.47;79.90
70407;BME280;57821;52.202;0.154;2023-11-22T12:55:21;102786.34;;;10.45;79.99
70407;BME280;57821;52.202;0.154;2023-11-22T12:58:08;102788.97;;;10.47;79.74
70407;BME280;57821;52.202;0.154;2023-11-22T13:00:55;102792.41;;;10.46;79.99
70407;BME280;57821;52.202;0.154;2023-11-22T13:03:47;102802.84;;;10.49;80.40
70407;BME280;57821;52.202;0.154;2023-11-22T13:06:36;102804.69;;;10.51;80.40
70407;BME280;57821;52.202;0.154;2023-11-22T13:09:23;102805.59;;;10.53;79.93
70407;BME280;57821;52.202;0.154;2023-11-22T13:12:10;102809.97;;;10.56;79.99
70407;BME280;57821;52.202;0.154;2023-11-22T13:14:57;102814.34;;;10.57;80.29
70407;BME280;57821;52.202;0.154;2023-11-22T13:17:44;102797.06;;;10.57;79.88
70407;BME280;57821;52.202;0.154;2023-11-22T13:20:32;102778.09;;;10.58;79.55
70407;BME280;57821;52.202;0.154;2023-11-22T13:23:19;102775.50;;;10.58;79.71
70407;BME280;57821;52.202;0.154;2023-11-22T13:26:06;102785.03;;;10.59;79.36
70407;BME280;57821;52.202;0.154;2023-11-22T13:28:56;102780.72;;;10.60;79.70
70407;BME280;57821;52.202;0.154;2023-11-22T13:31:44;102777.28;;;10.61;79.72
70407;BME280;57821;52.202;0.154;2023-11-22T13:34:32;102773.06;;;10.64;79.61
70407;BME280;57821;52.202;0.154;2023-11-22T13:37:22;102768.75;;;10.65;79.89
70407;BME280;57821;52.202;0.154;2023-11-22T13:40:11;102774.91;;;10.68;79.56
70407;BME280;57821;52.202;0.154;2023-11-22T13:43:03;102771.47;;;10.69;79.18
70407;BME280;57821;52.202;0.154;2023-11-22T13:45:50;102768.13;;;10.74;79.06
70407;BME280;57821;52.202;0.154;2023-11-22T13:48:37;102769.06;;;10.76;79.67
70407;BME280;57821;52.202;0.154;2023-11-22T13:51:25;102761.34;;;10.79;79.56
70407;BME280;57821;52.202;0.154;2023-11-22T13:54:12;102762.16;;;10.78;79.28
70407;BME280;57821;52.202;0.154;2023-11-22T13:57:01;102763.97;;;10.80;79.20
70407;BME280;57821;52.202;0.154;2023-11-22T13:59:48;102755.38;;;10.81;79.83
70407;BME280;57821;52.202;0.154;2023-11-22T14:02:35;102761.44;;;10.82;79.29
70407;BME280;57821;52.202;0.154;2023-11-22T14:05:27;102756.25;;;10.82;79.19
70407;BME280;57821;52.202;0.154;2023-11-22T14:08:14;102755.41;;;10.83;79.73
70407;BME280;57821;52.202;0.154;2023-11-22T14:11:03;102738.91;;;10.81;79.70
70407;BME280;57821;52.202;0.154;2023-11-22T14:13:50;102757.06;;;10.81;79.51
70407;BME280;57821;52.202;0.154;2023-11-22T14:16:37;102758.88;;;10.83;79.68
70407;BME280;57821;52.202;0.154;2023-11-22T14:19:27;102764.09;;;10.85;80.17
70407;BME280;57821;52.202;0.154;2023-11-22T14:22:14;102747.63;;;10.83;79.61
70407;BME280;57821;52.202;0.154;2023-11-22T14:25:02;102745.03;;;10.83;80.25
70407;BME280;57821;52.202;0.154;2023-11-22T14:27:49;102745.94;;;10.85;80.51
70407;BME280;57821;52.202;0.154;2023-11-22T14:30:41;102737.31;;;10.86;80.63
70407;BME280;57821;52.202;0.154;2023-11-22T14:33:29;102733.88;;;10.87;80.01
70407;BME280;57821;52.202;0.154;2023-11-22T14:36:18;102733.88;;;10.87;80.60
70407;BME280;57821;52.202;0.154;2023-11-22T14:39:05;102725.16;;;10.85;80.81
70407;BME280;57821;52.202;0.154;2023-11-22T14:41:54;102707.00;;;10.85;80.82
70407;BME280;57821;52.202;0.154;2023-11-22T14:44:42;102709.59;;;10.85;80.63
70407;BME280;57821;52.202;0.154;2023-11-22T14:47:29;102699.16;;;10.82;80.88
70407;BME280;57821;52.202;0.154;2023-11-22T14:50:22;102696.59;;;10.83;80.87